sensor_id;sensor_type;location;lat;lon;timestamp;pressure;altitude;pressure_sealevel;temperature;humidity
69784;BME280;57054;51.978;4.498;2023-02-18T00:01:13;102260.31;;;8.82;100.00
69784;BME280;57054;51.978;4.498;2023-02-18T00:03:39;102249.91;;;8.79;100.00
69784;BME280;57054;51.978;4.498;2023-02-18T00:08:44;102239.47;;;8.77;100.00
69784;BME280;57054;51.978;4.498;2023-02-18T00:11:10;102236.00;;;8.77;100.00
69784;BME280;57054;51.978;4.498;2023-02-18T00:13:36;102229.88;;;8.76;100.00
69784;BME280;57054;51.978;4.498;2023-02-18T00:16:03;102232.50;;;8.75;100.00
69784;BME280;57054;51.978;4.498;2023-02-18T00:18:29;102232.50;;;8.75;100.00
69784;BME280;57054;51.978;4.498;2023-02-18T00:20:55;102215.97;;;8.76;100.00
69784;BME280;57054;51.978;4.498;2023-02-18T00:23:21;102215.97;;;8.74;100.00
69784;BME280;57054;51.978;4.498;2023-02-18T00:25:46;102215.97;;;8.74;100.00
69784;BME280;57054;51.978;4.498;2023-02-18T00:28:11;102216.84;;;8.75;100.00
69784;BME280;57054;51.978;4.498;2023-02-18T00:30:41;102222.97;;;8.74;100.00
69784;BME280;57054;51.978;4.498;2023-02-18T00:33:07;102221.22;;;8.73;100.00
69784;BME280;57054;51.978;4.498;2023-02-18T00:35:32;102214.28;;;8.72;100.00
69784;BME280;57054;51.978;4.498;2023-02-18T00:37:57;102214.28;;;8.72;100.00
69784;BME280;57054;51.978;4.498;2023-02-18T00:40:23;102199.47;;;8.71;100.00
69784;BME280;57054;51.978;4.498;2023-02-18T00:42:48;102212.56;;;8.69;100.00
69784;BME280;57054;51.978;4.498;2023-02-18T00:45:13;102203.84;;;8.69;100.00
69784;BME280;57054;51.978;4.498;2023-02-18T00:47:39;102203.84;;;8.69;100.00
69784;BME280;57054;51.978;4.498;2023-02-18T00:50:05;102207.31;;;8.71;100.00
69784;BME280;57054;51.978;4.498;2023-02-18T00:52:31;102193.41;;;8.70;100.00
69784;BME280;57054;51.978;4.498;2023-02-18T00:54:56;102193.41;;;8.70;100.00
69784;BME280;57054;51.978;4.498;2023-02-18T00:57:21;102183.81;;;8.69;100.00
69784;BME280;57054;51.978;4.498;2023-02-18T00:59:47;102189.94;;;8.68;100.00
69784;BME280;57054;51.978;4.498;2023-02-18T01:02:12;102186.50;;;8.66;100.00
69784;BME280;57054;51.978;4.498;2023-02-18T01:04:38;102182.13;;;8.65;100.00
69784;BME280;57054;51.978;4.498;2023-02-18T01:07:03;102179.50;;;8.67;100.00
69784;BME280;57054;51.978;4.498;2023-02-18T01:09:28;102169.06;;;8.68;100.00
69784;BME280;57054;51.978;4.498;2023-02-18T01:11:54;102169.06;;;8.68;100.00
69784;BME280;57054;51.978;4.498;2023-02-18T01:14:19;102181.22;;;8.68;100.00
69784;BME280;57054;51.978;4.498;2023-02-18T01:16:44;102183.84;;;8.68;100.00
69784;BME280;57054;51.978;4.498;2023-02-18T01:19:10;102176.06;;;8.64;100.00
69784;BME280;57054;51.978;4.498;2023-02-18T01:21:35;102183.91;;;8.63;100.00
69784;BME280;57054;51.978;4.498;2023-02-18T01:24:01;102177.84;;;8.61;100.00
69784;BME280;57054;51.978;4.498;2023-02-18T01:26:27;102170.88;;;8.60;100.00
69784;BME280;57054;51.978;4.498;2023-02-18T01:28:52;102166.53;;;8.59;100.00
69784;BME280;57054;51.978;4.498;2023-02-18T01:31:17;102165.69;;;8.57;100.00
69784;BME280;57054;51.978;4.498;2023-02-18T01:33:43;102159.59;;;8.58;100.00
69784;BME280;57054;51.978;4.498;2023-02-18T01:36:09;102159.59;;;8.58;100.00
69784;BME280;57054;51.978;4.498;2023-02-18T01:38:35;102164.81;;;8.58;100.00
69784;BME280;57054;51.978;4.498;2023-02-18T01:41:01;102162.19;;;8.56;100.00
69784;BME280;57054;51.978;4.498;2023-02-18T01:43:26;102162.19;;;8.56;100.00
69784;BME280;57054;51.978;4.498;2023-02-18T01:48:45;102150.91;;;8.56;100.00
69784;BME280;57054;51.978;4.498;2023-02-18T01:51:24;102159.59;;;8.55;100.00
69784;BME280;57054;51.978;4.498;2023-02-18T01:57:02;102143.09;;;8.54;100.00
69784;BME280;57054;51.978;4.498;2023-02-18T01:59:36;102145.72;;;8.53;100.00
69784;BME280;57054;51.978;4.498;2023-02-18T02:02:02;102135.28;;;8.51;100.00
69784;BME280;57054;51.978;4.498;2023-02-18T02:04:28;102126.56;;;8.52;100.00
69784;BME280;57054;51.978;4.498;2023-02-18T02:06:54;102126.56;;;8.52;100.00
69784;BME280;57054;51.978;4.498;2023-02-18T02:09:21;102124.81;;;8.53;100.00
69784;BME280;57054;51.978;4.498;2023-02-18T02:29:24;102079.44;;;8.63;100.00
69784;BME280;57054;51.978;4.498;2023-02-18T02:37:58;102059.34;;;8.68;100.00
69784;BME280;57054;51.978;4.498;2023-02-18T02:40:37;102045.41;;;8.68;100.00
69784;BME280;57054;51.978;4.498;2023-02-18T02:43:13;102042.81;;;8.68;100.00
69784;BME280;57054;51.978;4.498;2023-02-18T02:46:12;102029.81;;;8.64;100.00
69784;BME280;57054;51.978;4.498;2023-02-18T02:48:53;102027.19;;;8.66;100.00
69784;BME280;57054;51.978;4.498;2023-02-18T02:51:26;102030.66;;;8.65;100.00
69784;BME280;57054;51.978;4.498;2023-02-18T02:53:54;102016.75;;;8.64;100.00
69784;BME280;57054;51.978;4.498;2023-02-18T02:56:22;102015.00;;;8.65;100.00
69784;BME280;57054;51.978;4.498;2023-02-18T02:59:00;102020.19;;;8.67;100.00
69784;BME280;57054;51.978;4.498;2023-02-18T03:07:01;102008.84;;;8.68;100.00
69784;BME280;57054;51.978;4.498;2023-02-18T03:09:51;102008.84;;;8.68;100.00
69784;BME280;57054;51.978;4.498;2023-02-18T03:12:33;102004.50;;;8.68;100.00
69784;BME280;57054;51.978;4.498;2023-02-18T03:18:00;101997.53;;;8.70;100.00
69784;BME280;57054;51.978;4.498;2023-02-18T03:20:33;102003.59;;;8.71;100.00
69784;BME280;57054;51.978;4.498;2023-02-18T03:23:04;101992.28;;;8.70;100.00
69784;BME280;57054;51.978;4.498;2023-02-18T03:25:32;101995.75;;;8.71;100.00
69784;BME280;57054;51.978;4.498;2023-02-18T03:28:07;101987.94;;;8.71;100.00
69784;BME280;57054;51.978;4.498;2023-02-18T03:30:42;101966.19;;;8.70;100.00
69784;BME280;57054;51.978;4.498;2023-02-18T03:33:13;101947.91;;;8.70;100.00
69784;BME280;57054;51.978;4.498;2023-02-18T03:35:42;101960.09;;;8.70;100.00
69784;BME280;57054;51.978;4.498;2023-02-18T03:38:14;101960.09;;;8.70;100.00
69784;BME280;57054;51.978;4.498;2023-02-18T03:40:42;101958.38;;;8.67;100.00
69784;BME280;57054;51.978;4.498;2023-02-18T03:43:07;101936.63;;;8.67;100.00
69784;BME280;57054;51.978;4.498;2023-02-18T03:45:33;101941.03;;;8.64;100.00
69784;BME280;57054;51.978;4.498;2023-02-18T03:47:59;101946.25;;;8.64;100.00
69784;BME280;57054;51.978;4.498;2023-02-18T03:50:24;101946.25;;;8.64;100.00
69784;BME280;57054;51.978;4.498;2023-02-18T03:52:49;101944.50;;;8.65;100.00
69784;BME280;57054;51.978;4.498;2023-02-18T03:55:15;101926.19;;;8.65;100.00
69784;BME280;57054;51.978;4.498;2023-02-18T03:57:40;101941.88;;;8.65;100.00
69784;BME280;57054;51.978;4.498;2023-02-18T04:00:07;101944.50;;;8.63;100.00
69784;BME280;57054;51.978;4.498;2023-02-18T04:02:33;101937.59;;;8.61;100.00
69784;BME280;57054;51.978;4.498;2023-02-18T04:04:58;101933.25;;;8.60;100.00
69784;BME280;57054;51.978;4.498;2023-02-18T04:07:24;101931.50;;;8.60;100.00
69784;BME280;57054;51.978;4.498;2023-02-18T04:09:49;101950.66;;;8.61;100.00
69784;BME280;57054;51.978;4.498;2023-02-18T04:12:14;101939.28;;;8.62;100.00
69784;BME280;57054;51.978;4.498;2023-02-18T04:14:40;101939.28;;;8.63;100.00
69784;BME280;57054;51.978;4.498;2023-02-18T04:17:05;101942.72;;;8.65;100.00
69784;BME280;57054;51.978;4.498;2023-02-18T04:19:30;101930.50;;;8.68;100.00
69784;BME280;57054;51.978;4.498;2023-02-18T04:21:56;101930.47;;;8.69;100.00
69784;BME280;57054;51.978;4.498;2023-02-18T04:24:21;101921.81;;;8.67;100.00
69784;BME280;57054;51.978;4.498;2023-02-18T04:26:47;101927.91;;;8.68;100.00
69784;BME280;57054;51.978;4.498;2023-02-18T04:29:12;101924.41;;;8.69;100.00
69784;BME280;57054;51.978;4.498;2023-02-18T04:31:38;101921.78;;;8.69;100.00
69784;BME280;57054;51.978;4.498;2023-02-18T04:34:03;101923.56;;;8.67;100.00
69784;BME280;57054;51.978;4.498;2023-02-18T04:36:28;101920.06;;;8.68;100.00
69784;BME280;57054;51.978;4.498;2023-02-18T04:38:54;101912.22;;;8.68;100.00
69784;BME280;57054;51.978;4.498;2023-02-18T04:41:19;101916.56;;;8.69;100.00
69784;BME280;57054;51.978;4.498;2023-02-18T04:43:44;101911.34;;;8.69;100.00
69784;BME280;57054;51.978;4.498;2023-02-18T04:46:10;101897.41;;;8.70;100.00
69784;BME280;57054;51.978;4.498;2023-02-18T04:48:35;101878.22;;;8.71;100.00
69784;BME280;57054;51.978;4.498;2023-02-18T04:51:01;101873.00;;;8.71;100.00
69784;BME280;57054;51.978;4.498;2023-02-18T04:53:27;101879.97;;;8.72;100.00
69784;BME280;57054;51.978;4.498;2023-02-18T04:55:52;101874.75;;;8.72;100.00
69784;BME280;57054;51.978;4.498;2023-02-18T04:58:19;101879.06;;;8.73;100.00
69784;BME280;57054;51.978;4.498;2023-02-18T05:00:45;101878.19;;;8.74;100.00
69784;BME280;57054;51.978;4.498;2023-02-18T05:03:11;101878.19;;;8.75;100.00
69784;BME280;57054;51.978;4.498;2023-02-18T05:05:37;101879.91;;;8.75;100.00
69784;BME280;57054;51.978;4.498;2023-02-18T05:08:03;101873.78;;;8.77;100.00
69784;BME280;57054;51.978;4.498;2023-02-18T05:10:29;101884.22;;;8.79;100.00
69784;BME280;57054;51.978;4.498;2023-02-18T05:12:55;101879.84;;;8.79;100.00
69784;BME280;57054;51.978;4.498;2023-02-18T05:15:20;101879.00;;;8.79;100.00
69784;BME280;57054;51.978;4.498;2023-02-18T05:17:46;101879.00;;;8.79;100.00
69784;BME280;57054;51.978;4.498;2023-02-18T05:20:12;101879.88;;;8.78;100.00
69784;BME280;57054;51.978;4.498;2023-02-18T05:22:37;101866.78;;;8.79;100.00
69784;BME280;57054;51.978;4.498;2023-02-18T05:25:04;101858.00;;;8.82;100.00
69784;BME280;57054;51.978;4.498;2023-02-18T05:27:30;101860.69;;;8.80;100.00
69784;BME280;57054;51.978;4.498;2023-02-18T05:29:55;101842.41;;;8.80;100.00
69784;BME280;57054;51.978;4.498;2023-02-18T05:32:21;101863.28;;;8.80;100.00
69784;BME280;57054;51.978;4.498;2023-02-18T05:34:47;101868.53;;;8.79;100.00
69784;BME280;57054;51.978;4.498;2023-02-18T05:37:12;101848.50;;;8.79;100.00
69784;BME280;57054;51.978;4.498;2023-02-18T05:39:39;101863.31;;;8.79;100.00
69784;BME280;57054;51.978;4.498;2023-02-18T05:42:04;101854.59;;;8.78;100.00
69784;BME280;57054;51.978;4.498;2023-02-18T05:44:30;101850.28;;;8.77;100.00
69784;BME280;57054;51.978;4.498;2023-02-18T05:47:07;101848.56;;;8.75;100.00
69784;BME280;57054;51.978;4.498;2023-02-18T05:49:33;101855.56;;;8.73;100.00
69784;BME280;57054;51.978;4.498;2023-02-18T05:51:59;101852.13;;;8.71;100.00
69784;BME280;57054;51.978;4.498;2023-02-18T05:54:26;101840.84;;;8.69;100.00
69784;BME280;57054;51.978;4.498;2023-02-18T05:56:52;101839.09;;;8.69;100.00
69784;BME280;57054;51.978;4.498;2023-02-18T05:59:18;101855.69;;;8.67;100.00
69784;BME280;57054;51.978;4.498;2023-02-18T06:01:44;101842.63;;;8.67;100.00
69784;BME280;57054;51.978;4.498;2023-02-18T06:04:10;101844.38;;;8.66;100.00
69784;BME280;57054;51.978;4.498;2023-02-18T06:06:35;101826.13;;;8.64;100.00
69784;BME280;57054;51.978;4.498;2023-02-18T06:09:01;101828.72;;;8.64;100.00
69784;BME280;57054;51.978;4.498;2023-02-18T06:11:26;101832.19;;;8.65;100.00
69784;BME280;57054;51.978;4.498;2023-02-18T06:13:52;101843.50;;;8.64;100.00
69784;BME280;57054;51.978;4.498;2023-02-18T06:16:17;101832.19;;;8.67;100.00
69784;BME280;57054;51.978;4.498;2023-02-18T06:18:43;101845.22;;;8.68;100.00
69784;BME280;57054;51.978;4.498;2023-02-18T06:21:08;101847.81;;;8.70;100.00
69784;BME280;57054;51.978;4.498;2023-02-18T06:23:33;101843.44;;;8.69;100.00
69784;BME280;57054;51.978;4.498;2023-02-18T06:25:59;101839.97;;;8.70;100.00
69784;BME280;57054;51.978;4.498;2023-02-18T06:28:24;101841.69;;;8.69;100.00
69784;BME280;57054;51.978;4.498;2023-02-18T06:30:50;101850.41;;;8.70;100.00
69784;BME280;57054;51.978;4.498;2023-02-18T06:33:16;101846.06;;;8.69;100.00
69784;BME280;57054;51.978;4.498;2023-02-18T06:35:41;101839.97;;;8.70;100.00
69784;BME280;57054;51.978;4.498;2023-02-18T06:38:07;101842.53;;;8.71;100.00
69784;BME280;57054;51.978;4.498;2023-02-18T06:40:32;101846.03;;;8.72;100.00
69784;BME280;57054;51.978;4.498;2023-02-18T06:42:58;101836.44;;;8.72;100.00
69784;BME280;57054;51.978;4.498;2023-02-18T06:45:23;101842.53;;;8.71;100.00
69784;BME280;57054;51.978;4.498;2023-02-18T06:47:49;101826.00;;;8.71;100.00
69784;BME280;57054;51.978;4.498;2023-02-18T06:50:14;101839.97;;;8.70;100.00
69784;BME280;57054;51.978;4.498;2023-02-18T06:52:40;101827.75;;;8.70;100.00
69784;BME280;57054;51.978;4.498;2023-02-18T06:55:06;101836.47;;;8.69;100.00
69784;BME280;57054;51.978;4.498;2023-02-18T06:57:33;101827.78;;;8.69;100.00
69784;BME280;57054;51.978;4.498;2023-02-18T06:59:59;101834.75;;;8.70;100.00
69784;BME280;57054;51.978;4.498;2023-02-18T07:02:26;101832.19;;;8.67;100.00
69784;BME280;57054;51.978;4.498;2023-02-18T07:04:51;101836.53;;;8.66;100.00
69784;BME280;57054;51.978;4.498;2023-02-18T07:07:16;101835.66;;;8.65;100.00
69784;BME280;57054;51.978;4.498;2023-02-18T07:09:42;101840.06;;;8.63;100.00
69784;BME280;57054;51.978;4.498;2023-02-18T07:12:07;101819.16;;;8.63;100.00
69784;BME280;57054;51.978;4.498;2023-02-18T07:14:32;101834.81;;;8.63;100.00
69784;BME280;57054;51.978;4.498;2023-02-18T07:16:58;101833.06;;;8.64;100.00
69784;BME280;57054;51.978;4.498;2023-02-18T07:19:23;101830.47;;;8.64;100.00
69784;BME280;57054;51.978;4.498;2023-02-18T07:21:49;101829.59;;;8.63;100.00
69784;BME280;57054;51.978;4.498;2023-02-18T07:24:14;101834.81;;;8.63;100.00
69784;BME280;57054;51.978;4.498;2023-02-18T07:26:39;101831.34;;;8.64;100.00
69784;BME280;57054;51.978;4.498;2023-02-18T07:29:05;101829.59;;;8.65;100.00
69784;BME280;57054;51.978;4.498;2023-02-18T07:31:30;101819.16;;;8.63;100.00
69784;BME280;57054;51.978;4.498;2023-02-18T07:33:55;101829.59;;;8.63;100.00
69784;BME280;57054;51.978;4.498;2023-02-18T07:36:21;101825.28;;;8.62;100.00
69784;BME280;57054;51.978;4.498;2023-02-18T07:38:46;101818.31;;;8.61;100.00
69784;BME280;57054;51.978;4.498;2023-02-18T07:41:20;101822.69;;;8.62;100.00
69784;BME280;57054;51.978;4.498;2023-02-18T07:43:46;101820.06;;;8.62;100.00
69784;BME280;57054;51.978;4.498;2023-02-18T07:46:12;101822.69;;;8.62;100.00
69784;BME280;57054;51.978;4.498;2023-02-18T07:48:37;101827.91;;;8.62;100.00
69784;BME280;57054;51.978;4.498;2023-02-18T07:51:07;101833.06;;;8.64;100.00
69784;BME280;57054;51.978;4.498;2023-02-18T07:53:34;101827.00;;;8.63;100.00
69784;BME280;57054;51.978;4.498;2023-02-18T07:56:00;101832.22;;;8.63;100.00
69784;BME280;57054;51.978;4.498;2023-02-18T07:58:31;101839.19;;;8.63;100.00
69784;BME280;57054;51.978;4.498;2023-02-18T08:00:58;101846.19;;;8.61;100.00
69784;BME280;57054;51.978;4.498;2023-02-18T08:03:27;101844.47;;;8.60;100.00
69784;BME280;57054;51.978;4.498;2023-02-18T08:05:53;101841.84;;;8.60;100.00
69784;BME280;57054;51.978;4.498;2023-02-18T08:08:22;101847.06;;;8.60;100.00
69784;BME280;57054;51.978;4.498;2023-02-18T08:10:50;101851.47;;;8.58;100.00
69784;BME280;57054;51.978;4.498;2023-02-18T08:13:16;101841.88;;;8.58;100.00
69784;BME280;57054;51.978;4.498;2023-02-18T08:15:42;101843.63;;;8.58;100.00
69784;BME280;57054;51.978;4.498;2023-02-18T08:18:16;101851.47;;;8.56;100.00
69784;BME280;57054;51.978;4.498;2023-02-18T08:20:42;101835.81;;;8.56;100.00
69784;BME280;57054;51.978;4.498;2023-02-18T08:23:09;101847.16;;;8.55;100.00
69784;BME280;57054;51.978;4.498;2023-02-18T08:25:35;101841.97;;;8.52;100.00
69784;BME280;57054;51.978;4.498;2023-02-18T08:28:01;101844.59;;;8.52;100.00
69784;BME280;57054;51.978;4.498;2023-02-18T08:30:26;101848.97;;;8.52;100.00
69784;BME280;57054;51.978;4.498;2023-02-18T08:32:52;101855.06;;;8.51;100.00
69784;BME280;57054;51.978;4.498;2023-02-18T08:35:17;101854.19;;;8.50;100.00
69784;BME280;57054;51.978;4.498;2023-02-18T08:37:43;101857.66;;;8.51;100.00
69784;BME280;57054;51.978;4.498;2023-02-18T08:40:09;101861.09;;;8.54;100.00
69784;BME280;57054;51.978;4.498;2023-02-18T08:42:35;101850.59;;;8.57;100.00
69784;BME280;57054;51.978;4.498;2023-02-18T08:45:00;101863.63;;;8.60;100.00
69784;BME280;57054;51.978;4.498;2023-02-18T08:47:26;101874.91;;;8.62;100.00
69784;BME280;57054;51.978;4.498;2023-02-18T08:49:52;101880.97;;;8.64;100.00
69784;BME280;57054;51.978;4.498;2023-02-18T08:52:18;101862.69;;;8.64;100.00
69784;BME280;57054;51.978;4.498;2023-02-18T08:54:44;101878.31;;;8.66;100.00
69784;BME280;57054;51.978;4.498;2023-02-18T08:57:09;101854.78;;;8.68;100.00
69784;BME280;57054;51.978;4.498;2023-02-18T08:59:34;101858.28;;;8.68;100.00
69784;BME280;57054;51.978;4.498;2023-02-18T09:02:00;101883.47;;;8.69;100.00
69784;BME280;57054;51.978;4.498;2023-02-18T09:04:25;101882.63;;;8.69;100.00
69784;BME280;57054;51.978;4.498;2023-02-18T09:06:50;101889.59;;;8.68;100.00
69784;BME280;57054;51.978;4.498;2023-02-18T09:09:16;101879.19;;;8.67;100.00
69784;BME280;57054;51.978;4.498;2023-02-18T09:11:42;101892.25;;;8.67;100.00
69784;BME280;57054;51.978;4.498;2023-02-18T09:14:08;101900.06;;;8.68;100.00
69784;BME280;57054;51.978;4.498;2023-02-18T09:16:34;101888.69;;;8.69;100.00
69784;BME280;57054;51.978;4.498;2023-02-18T09:18:59;101893.06;;;8.70;100.00
69784;BME280;57054;51.978;4.498;2023-02-18T09:21:25;101891.28;;;8.71;100.00
69784;BME280;57054;51.978;4.498;2023-02-18T09:23:51;101888.69;;;8.71;100.00
69784;BME280;57054;51.978;4.498;2023-02-18T09:26:19;101907.81;;;8.71;100.00
69784;BME280;57054;51.978;4.498;2023-02-18T09:28:48;101888.66;;;8.72;100.00
69784;BME280;57054;51.978;4.498;2023-02-18T09:31:17;101916.53;;;8.72;100.00
69784;BME280;57054;51.978;4.498;2023-02-18T09:33:46;101909.56;;;8.72;100.00
69784;BME280;57054;51.978;4.498;2023-02-18T09:36:11;101906.94;;;8.72;100.00
69784;BME280;57054;51.978;4.498;2023-02-18T09:38:37;101904.31;;;8.74;100.00
69784;BME280;57054;51.978;4.498;2023-02-18T09:41:04;101911.28;;;8.73;100.00
69784;BME280;57054;51.978;4.498;2023-02-18T09:43:35;101909.53;;;8.74;100.00
69784;BME280;57054;51.978;4.498;2023-02-18T09:46:04;101928.66;;;8.76;100.00
69784;BME280;57054;51.978;4.498;2023-02-18T09:48:32;101924.25;;;8.78;100.00
69784;BME280;57054;51.978;4.498;2023-02-18T09:50:58;101927.72;;;8.80;100.00
69784;BME280;57054;51.978;4.498;2023-02-18T09:53:24;101947.72;;;8.81;100.00
69784;BME280;57054;51.978;4.498;2023-02-18T09:55:52;101909.44;;;8.80;100.00
69784;BME280;57054;51.978;4.498;2023-02-18T09:58:29;101914.66;;;8.80;100.00
69784;BME280;57054;51.978;4.498;2023-02-18T10:01:11;101933.84;;;8.79;100.00
69784;BME280;57054;51.978;4.498;2023-02-18T10:03:40;101932.09;;;8.79;100.00
69784;BME280;57054;51.978;4.498;2023-02-18T10:06:20;101926.81;;;8.82;100.00
69784;BME280;57054;51.978;4.498;2023-02-18T10:08:48;101918.06;;;8.85;100.00
69784;BME280;57054;51.978;4.498;2023-02-18T10:11:27;101933.72;;;8.87;100.00
69784;BME280;57054;51.978;4.498;2023-02-18T10:13:54;101934.53;;;8.89;100.00
69784;BME280;57054;51.978;4.498;2023-02-18T10:16:21;101935.41;;;8.89;100.00
69784;BME280;57054;51.978;4.498;2023-02-18T10:18:49;101944.13;;;8.90;100.00
69784;BME280;57054;51.978;4.498;2023-02-18T10:21:27;101944.06;;;8.91;100.00
69784;BME280;57054;51.978;4.498;2023-02-18T10:24:26;101947.53;;;8.93;100.00
69784;BME280;57054;51.978;4.498;2023-02-18T10:26:52;101948.41;;;8.94;100.00
69784;BME280;57054;51.978;4.498;2023-02-18T10:29:19;101964.94;;;8.94;100.00
69784;BME280;57054;51.978;4.498;2023-02-18T10:32:22;101959.72;;;8.94;100.00
69784;BME280;57054;51.978;4.498;2023-02-18T10:37:46;101948.41;;;8.94;100.00
69784;BME280;57054;51.978;4.498;2023-02-18T10:48:25;101962.31;;;8.94;100.00
69784;BME280;57054;51.978;4.498;2023-02-18T10:50:52;101963.16;;;8.96;100.00
69784;BME280;57054;51.978;4.498;2023-02-18T10:53:37;101955.28;;;8.98;100.00
69784;BME280;57054;51.978;4.498;2023-02-18T10:56:05;101970.03;;;9.02;100.00
69784;BME280;57054;51.978;4.498;2023-02-18T10:58:36;101963.00;;;9.06;100.00
69784;BME280;57054;51.978;4.498;2023-02-18T11:01:12;101948.16;;;9.08;100.00
69784;BME280;57054;51.978;4.498;2023-02-18T11:03:44;101960.31;;;9.10;100.00
69784;BME280;57054;51.978;4.498;2023-02-18T11:06:22;101943.75;;;9.11;100.00
69784;BME280;57054;51.978;4.498;2023-02-18T11:08:49;101971.63;;;9.12;100.00
69784;BME280;57054;51.978;4.498;2023-02-18T11:11:20;101965.47;;;9.15;100.00
69784;BME280;57054;51.978;4.498;2023-02-18T11:13:55;101958.47;;;9.17;100.00
69784;BME280;57054;51.978;4.498;2023-02-18T11:16:23;101963.66;;;9.18;100.00
69784;BME280;57054;51.978;4.498;2023-02-18T11:18:59;101955.78;;;9.20;100.00
69784;BME280;57054;51.978;4.498;2023-02-18T11:21:35;101964.47;;;9.22;100.00
69784;BME280;57054;51.978;4.498;2023-02-18T11:24:08;101970.56;;;9.24;100.00
69784;BME280;57054;51.978;4.498;2023-02-18T11:26:35;101963.56;;;9.26;100.00
69784;BME280;57054;51.978;4.498;2023-02-18T11:29:21;101960.00;;;9.29;100.00
69784;BME280;57054;51.978;4.498;2023-02-18T11:31:50;101957.34;;;9.32;100.00
69784;BME280;57054;51.978;4.498;2023-02-18T11:34:17;101968.63;;;9.34;100.00
69784;BME280;57054;51.978;4.498;2023-02-18T11:36:44;101957.28;;;9.35;100.00
69784;BME280;57054;51.978;4.498;2023-02-18T11:39:25;101950.31;;;9.35;100.00
69784;BME280;57054;51.978;4.498;2023-02-18T11:42:02;101946.78;;;9.36;100.00
69784;BME280;57054;51.978;4.498;2023-02-18T11:44:39;101964.22;;;9.37;100.00
69784;BME280;57054;51.978;4.498;2023-02-18T11:47:17;101961.63;;;9.36;100.00
69784;BME280;57054;51.978;4.498;2023-02-18T11:50:13;101965.94;;;9.38;100.00
69784;BME280;57054;51.978;4.498;2023-02-18T11:52:49;101959.84;;;9.38;100.00
69784;BME280;57054;51.978;4.498;2023-02-18T11:55:19;101951.13;;;9.39;100.00
69784;BME280;57054;51.978;4.498;2023-02-18T11:58:03;101942.41;;;9.38;100.00
69784;BME280;57054;51.978;4.498;2023-02-18T12:00:45;101938.06;;;9.39;100.00
69784;BME280;57054;51.978;4.498;2023-02-18T12:05:49;101953.66;;;9.42;100.00
69784;BME280;57054;51.978;4.498;2023-02-18T12:08:26;101955.34;;;9.46;100.00
69784;BME280;57054;51.978;4.498;2023-02-18T12:11:07;101945.72;;;9.48;100.00
69784;BME280;57054;51.978;4.498;2023-02-18T12:13:38;101943.03;;;9.51;100.00
69784;BME280;57054;51.978;4.498;2023-02-18T12:22:15;101928.84;;;9.65;100.00
69784;BME280;57054;51.978;4.498;2023-02-18T12:33:20;101940.72;;;9.83;100.00
69784;BME280;57054;51.978;4.498;2023-02-18T12:44:12;101950.09;;;9.91;100.00
69784;BME280;57054;51.978;4.498;2023-02-18T12:49:54;101946.63;;;9.92;100.00
69784;BME280;57054;51.978;4.498;2023-02-18T12:55:22;101970.13;;;9.94;100.00
69784;BME280;57054;51.978;4.498;2023-02-18T13:00:56;101951.78;;;9.97;100.00
69784;BME280;57054;51.978;4.498;2023-02-18T13:14:37;101950.00;;;9.97;100.00
69784;BME280;57054;51.978;4.498;2023-02-18T13:17:09;101958.69;;;9.99;100.00
69784;BME280;57054;51.978;4.498;2023-02-18T13:22:11;101952.56;;;10.01;100.00
69784;BME280;57054;51.978;4.498;2023-02-18T13:24:42;101965.59;;;10.02;100.00
69784;BME280;57054;51.978;4.498;2023-02-18T13:32:38;101948.19;;;10.01;100.00
69784;BME280;57054;51.978;4.498;2023-02-18T13:40:44;101959.47;;;10.03;100.00
69784;BME280;57054;51.978;4.498;2023-02-18T13:43:31;101945.44;;;10.06;100.00
69784;BME280;57054;51.978;4.498;2023-02-18T13:48:38;101938.41;;;10.09;100.00
69784;BME280;57054;51.978;4.498;2023-02-18T13:51:05;101938.38;;;10.11;100.00
69784;BME280;57054;51.978;4.498;2023-02-18T13:53:34;101945.31;;;10.13;100.00
69784;BME280;57054;51.978;4.498;2023-02-18T13:56:03;101950.47;;;10.16;100.00
69784;BME280;57054;51.978;4.498;2023-02-18T14:06:29;101962.56;;;10.22;100.00
69784;BME280;57054;51.978;4.498;2023-02-18T14:12:15;101958.25;;;10.19;99.52
69784;BME280;57054;51.978;4.498;2023-02-18T14:22:32;101952.31;;;10.11;100.00
69784;BME280;57054;51.978;4.498;2023-02-18T14:27:32;101965.41;;;10.11;100.00
69784;BME280;57054;51.978;4.498;2023-02-18T14:30:05;101952.41;;;10.08;100.00
69784;BME280;57054;51.978;4.498;2023-02-18T14:32:32;101969.00;;;10.06;99.85
69784;BME280;57054;51.978;4.498;2023-02-18T14:35:12;101969.09;;;10.03;100.00
69784;BME280;57054;51.978;4.498;2023-02-18T14:43:31;101953.53;;;9.95;100.00
69784;BME280;57054;51.978;4.498;2023-02-18T14:46:55;101952.66;;;9.94;100.00
69784;BME280;57054;51.978;4.498;2023-02-18T14:49:24;101964.91;;;9.94;100.00
69784;BME280;57054;51.978;4.498;2023-02-18T14:51:56;101968.41;;;9.93;100.00
69784;BME280;57054;51.978;4.498;2023-02-18T14:54:24;101948.38;;;9.92;100.00
69784;BME280;57054;51.978;4.498;2023-02-18T14:57:00;101958.84;;;9.92;100.00
69784;BME280;57054;51.978;4.498;2023-02-18T14:59:33;101960.63;;;9.90;100.00
69784;BME280;57054;51.978;4.498;2023-02-18T15:01:59;101956.28;;;9.89;100.00
69784;BME280;57054;51.978;4.498;2023-02-18T15:04:25;101952.81;;;9.88;100.00
69784;BME280;57054;51.978;4.498;2023-02-18T15:06:59;101961.56;;;9.86;100.00
69784;BME280;57054;51.978;4.498;2023-02-18T15:09:25;101956.31;;;9.87;100.00
69784;BME280;57054;51.978;4.498;2023-02-18T15:11:59;101958.06;;;9.87;100.00
69784;BME280;57054;51.978;4.498;2023-02-18T15:16:56;101958.13;;;9.84;100.00
69784;BME280;57054;51.978;4.498;2023-02-18T15:19:24;101950.28;;;9.82;100.00
69784;BME280;57054;51.978;4.498;2023-02-18T15:21:53;101958.13;;;9.82;100.00